createdAt,value
2018-07-22T00:00:24.875Z,0
2018-07-22T00:01:25.453Z,0
2018-07-22T00:02:26.028Z,0
2018-07-22T00:03:26.605Z,0
2018-07-22T00:04:27.181Z,0
2018-07-22T00:05:27.756Z,0
2018-07-22T00:06:28.344Z,0
2018-07-22T00:07:28.920Z,0
2018-07-22T00:08:29.497Z,0
2018-07-22T00:09:30.075Z,0
2018-07-22T00:10:30.657Z,0
2018-07-22T00:11:31.234Z,0
2018-07-22T00:12:31.810Z,0
2018-07-22T00:13:32.386Z,0
2018-07-22T00:14:32.961Z,0
2018-07-22T00:15:33.537Z,0
2018-07-22T00:16:34.112Z,0
2018-07-22T00:17:34.687Z,0
2018-07-22T00:18:35.262Z,0
2018-07-22T00:19:35.837Z,0
2018-07-22T00:20:36.412Z,0
2018-07-22T00:21:36.988Z,0
2018-07-22T00:22:37.565Z,0
2018-07-22T00:23:38.141Z,0
2018-07-22T00:24:38.717Z,0
2018-07-22T00:25:39.294Z,0
2018-07-22T00:26:39.870Z,0
2018-07-22T00:27:40.444Z,0
2018-07-22T00:28:41.019Z,0
2018-07-22T00:29:41.592Z,0
2018-07-22T00:30:42.178Z,0
2018-07-22T00:31:42.756Z,0
2018-07-22T00:32:43.330Z,0
2018-07-22T00:33:43.905Z,0
2018-07-22T00:34:44.479Z,0
2018-07-22T00:35:45.054Z,0
2018-07-22T00:36:45.628Z,0
2018-07-22T00:37:46.203Z,0
2018-07-22T00:38:46.777Z,0
2018-07-22T00:39:47.351Z,0
2018-07-22T00:40:47.928Z,0
2018-07-22T00:41:48.503Z,0
2018-07-22T00:42:49.081Z,0
2018-07-22T00:43:49.657Z,0
2018-07-22T00:44:50.243Z,0
2018-07-22T00:45:50.829Z,0
2018-07-22T00:46:51.405Z,0
2018-07-22T00:47:51.979Z,0
2018-07-22T00:48:52.554Z,0
2018-07-22T00:49:53.128Z,0
2018-07-22T00:50:53.703Z,0
2018-07-22T00:51:54.279Z,0
2018-07-22T00:52:54.865Z,0
2018-07-22T00:53:55.439Z,0
2018-07-22T00:54:56.015Z,0
2018-07-22T00:55:56.588Z,0
2018-07-22T00:56:57.164Z,0
2018-07-22T00:57:57.739Z,0
2018-07-22T00:58:58.314Z,0
2018-07-22T00:59:58.941Z,0
2018-07-22T01:00:59.466Z,0
2018-07-22T01:02:00.047Z,0
2018-07-22T01:03:00.631Z,0
2018-07-22T01:04:01.207Z,0
2018-07-22T01:05:01.784Z,0
2018-07-22T01:06:02.360Z,0
2018-07-22T01:07:02.936Z,0
2018-07-22T01:08:03.510Z,0
2018-07-22T01:09:04.083Z,0
2018-07-22T01:10:04.669Z,0
2018-07-22T01:11:05.243Z,0
2018-07-22T01:12:05.820Z,0
2018-07-22T01:13:06.395Z,0
2018-07-22T01:14:06.970Z,0
2018-07-22T01:15:07.544Z,0
2018-07-22T01:16:08.118Z,0
2018-07-22T01:17:08.693Z,0
2018-07-22T01:18:09.268Z,0
2018-07-22T01:19:09.855Z,0
2018-07-22T01:20:10.429Z,0
2018-07-22T01:21:11.004Z,0
2018-07-22T01:22:17.844Z,0
2018-07-22T01:23:18.423Z,0
2018-07-22T01:24:19.007Z,0
2018-07-22T01:25:19.581Z,0
2018-07-22T01:26:20.158Z,0
2018-07-22T01:27:20.736Z,0
2018-07-22T01:28:21.308Z,0
2018-07-22T01:29:21.882Z,0
2018-07-22T01:30:22.455Z,0
2018-07-22T01:31:23.030Z,0
2018-07-22T01:32:23.604Z,0
2018-07-22T01:33:24.177Z,0
2018-07-22T01:34:24.753Z,0
2018-07-22T01:35:25.339Z,0
2018-07-22T01:36:25.912Z,0
2018-07-22T01:37:26.488Z,0
2018-07-22T01:38:27.061Z,0
2018-07-22T01:39:27.635Z,0
2018-07-22T01:40:28.209Z,0
2018-07-22T01:41:28.784Z,0
2018-07-22T01:42:29.360Z,0
2018-07-22T01:43:29.936Z,0
2018-07-22T01:44:30.512Z,0
2018-07-22T01:45:31.087Z,0
2018-07-22T01:46:31.661Z,0
2018-07-22T01:47:32.235Z,0
2018-07-22T01:48:32.808Z,0
2018-07-22T01:49:33.382Z,0
2018-07-22T01:50:33.957Z,0
2018-07-22T01:51:34.530Z,0
2018-07-22T01:52:35.108Z,0
2018-07-22T01:53:35.690Z,0
2018-07-22T01:54:36.267Z,0
2018-07-22T01:55:36.839Z,0
2018-07-22T01:56:37.424Z,0
2018-07-22T01:57:37.998Z,0
2018-07-22T01:58:38.574Z,0
2018-07-22T01:59:39.148Z,0
2018-07-22T02:00:39.725Z,0
2018-07-22T02:01:40.321Z,0
2018-07-22T02:02:40.883Z,0
2018-07-22T02:03:41.461Z,0
2018-07-22T02:04:42.033Z,0
2018-07-22T02:05:42.617Z,0
2018-07-22T02:06:43.193Z,0
2018-07-22T02:07:43.768Z,0
2018-07-22T02:08:44.348Z,0
2018-07-22T02:09:44.928Z,0
2018-07-22T02:10:45.503Z,0
2018-07-22T02:11:46.079Z,0
2018-07-22T02:12:46.654Z,0
2018-07-22T02:13:47.229Z,0
2018-07-22T02:14:47.804Z,0
2018-07-22T02:15:48.379Z,0
2018-07-22T02:16:48.952Z,0
2018-07-22T02:17:49.526Z,0
2018-07-22T02:18:50.099Z,0
2018-07-22T02:19:50.685Z,0
2018-07-22T02:20:51.313Z,0
2018-07-22T02:21:51.846Z,0
2018-07-22T02:22:52.422Z,0
2018-07-22T02:23:52.997Z,0
2018-07-22T02:24:53.571Z,0
2018-07-22T02:25:54.146Z,0
2018-07-22T02:26:54.719Z,0
2018-07-22T02:27:55.294Z,0
2018-07-22T02:28:55.879Z,0
2018-07-22T02:29:56.454Z,0
2018-07-22T02:30:57.035Z,0
2018-07-22T02:31:57.601Z,0
2018-07-22T02:32:58.181Z,0
2018-07-22T02:33:58.751Z,0
2018-07-22T02:34:59.325Z,0
2018-07-22T02:35:59.899Z,0
2018-07-22T02:37:00.478Z,0
2018-07-22T02:38:01.059Z,0
2018-07-22T02:39:01.638Z,0
2018-07-22T02:40:02.208Z,0
2018-07-22T02:41:02.780Z,0
2018-07-22T02:42:03.356Z,0
2018-07-22T02:43:03.927Z,0
2018-07-22T02:44:04.501Z,0
2018-07-22T02:45:05.075Z,0
2018-07-22T02:46:05.652Z,0
2018-07-22T02:47:06.236Z,0
2018-07-22T02:48:06.810Z,0
2018-07-22T02:49:07.382Z,0
2018-07-22T02:50:07.956Z,0
2018-07-22T02:51:08.531Z,0
2018-07-22T02:52:09.105Z,0
2018-07-22T02:53:09.679Z,0
2018-07-22T02:54:10.255Z,0
2018-07-22T02:55:10.832Z,0
2018-07-22T02:56:11.407Z,0
2018-07-22T02:57:11.980Z,0
2018-07-22T02:58:12.555Z,0
2018-07-22T02:59:13.129Z,0
2018-07-22T03:00:13.703Z,0
2018-07-22T03:01:14.277Z,0
2018-07-22T03:02:14.851Z,0
2018-07-22T03:03:15.434Z,0
2018-07-22T03:04:16.009Z,0
2018-07-22T03:05:16.583Z,0
2018-07-22T03:06:17.159Z,0
2018-07-22T03:07:17.730Z,0
2018-07-22T03:08:18.304Z,0
2018-07-22T03:09:18.882Z,0
2018-07-22T03:10:19.451Z,0
2018-07-22T03:11:20.025Z,0
2018-07-22T03:12:20.611Z,0
2018-07-22T03:13:21.184Z,0
2018-07-22T03:14:21.759Z,4
2018-07-22T03:15:22.333Z,0
2018-07-22T03:16:22.906Z,0
2018-07-22T03:17:23.481Z,0
2018-07-22T03:18:24.054Z,4
2018-07-22T03:19:24.627Z,4
2018-07-22T03:20:25.200Z,0
2018-07-22T03:21:25.774Z,0
2018-07-22T03:22:26.349Z,4
2018-07-22T03:23:26.925Z,0
2018-07-22T03:24:27.499Z,4
2018-07-22T03:25:28.075Z,4
2018-07-22T03:26:28.648Z,4
2018-07-22T03:27:29.232Z,4
2018-07-22T03:28:29.808Z,4
2018-07-22T03:29:30.382Z,4
2018-07-22T03:30:30.966Z,4
2018-07-22T03:31:31.540Z,8
2018-07-22T03:32:32.112Z,4
2018-07-22T03:33:32.686Z,8
2018-07-22T03:34:33.260Z,8
2018-07-22T03:35:33.837Z,8
2018-07-22T03:36:34.414Z,8
2018-07-22T03:37:34.996Z,12
2018-07-22T03:38:35.570Z,12
2018-07-22T03:39:36.146Z,12
2018-07-22T03:40:36.723Z,16
2018-07-22T03:41:37.297Z,16
2018-07-22T03:42:37.873Z,16
2018-07-22T03:43:38.448Z,20
2018-07-22T03:44:39.022Z,20
2018-07-22T03:45:39.597Z,20
2018-07-22T03:46:40.171Z,20
2018-07-22T03:47:40.748Z,20
2018-07-22T03:48:41.323Z,24
2018-07-22T03:49:41.899Z,24
2018-07-22T03:50:42.475Z,28
2018-07-22T03:51:43.050Z,28
2018-07-22T03:52:43.624Z,28
2018-07-22T03:53:44.212Z,32
2018-07-22T03:54:44.797Z,32
2018-07-22T03:55:45.376Z,36
2018-07-22T03:56:45.959Z,36
2018-07-22T03:57:46.534Z,36
2018-07-22T03:58:47.114Z,40
2018-07-22T03:59:47.697Z,40
2018-07-22T04:00:48.282Z,44
2018-07-22T04:01:48.858Z,48
2018-07-22T04:02:49.433Z,48
2018-07-22T04:03:50.020Z,52
2018-07-22T04:04:50.594Z,52
2018-07-22T04:05:51.171Z,52
2018-07-22T04:06:51.766Z,56
2018-07-22T04:07:52.330Z,56
2018-07-22T04:08:52.904Z,60
2018-07-22T04:09:53.481Z,60
2018-07-22T04:10:54.056Z,64
2018-07-22T04:11:54.649Z,68
2018-07-22T04:12:55.218Z,68
2018-07-22T04:13:55.794Z,72
2018-07-22T04:14:56.379Z,72
2018-07-22T04:15:56.957Z,76
2018-07-22T04:16:57.532Z,76
2018-07-22T04:17:58.118Z,80
2018-07-22T04:18:58.695Z,84
2018-07-22T04:19:59.269Z,88
2018-07-22T04:20:59.845Z,88
2018-07-22T04:22:00.420Z,88
2018-07-22T04:23:00.994Z,92
2018-07-22T04:24:01.572Z,96
2018-07-22T04:25:02.158Z,100
2018-07-22T04:26:02.737Z,100
2018-07-22T04:27:03.321Z,104
2018-07-22T04:28:03.907Z,108
2018-07-22T04:29:04.483Z,108
2018-07-22T04:30:05.060Z,112
2018-07-22T04:31:05.634Z,116
2018-07-22T04:32:06.209Z,120
2018-07-22T04:33:06.784Z,120
2018-07-22T04:34:07.361Z,124
2018-07-22T04:35:07.939Z,128
2018-07-22T04:36:08.514Z,128
2018-07-22T04:37:09.091Z,132
2018-07-22T04:38:09.667Z,136
2018-07-22T04:39:10.244Z,140
2018-07-22T04:40:10.832Z,144
2018-07-22T04:41:11.407Z,148
2018-07-22T04:42:11.984Z,152
2018-07-22T04:43:12.563Z,156
2018-07-22T04:44:13.137Z,156
2018-07-22T04:45:13.715Z,160
2018-07-22T04:46:14.302Z,164
2018-07-22T04:47:14.878Z,168
2018-07-22T04:48:15.454Z,172
2018-07-22T04:49:16.043Z,176
2018-07-22T04:50:16.617Z,176
2018-07-22T04:51:17.193Z,180
2018-07-22T04:52:17.769Z,184
2018-07-22T04:53:18.348Z,184
2018-07-22T04:54:18.927Z,192
2018-07-22T04:55:19.519Z,192
2018-07-22T04:56:20.080Z,196
2018-07-22T04:57:20.658Z,200
2018-07-22T04:58:21.236Z,200
2018-07-22T04:59:21.815Z,208
2018-07-22T05:00:22.391Z,212
2018-07-22T05:01:22.968Z,216
2018-07-22T05:02:23.547Z,220
2018-07-22T05:03:24.124Z,220
2018-07-22T05:04:24.702Z,224
2018-07-22T05:05:25.278Z,228
2018-07-22T05:06:25.857Z,232
2018-07-22T05:07:26.437Z,232
2018-07-22T05:08:27.013Z,240
2018-07-22T05:09:27.590Z,240
2018-07-22T05:10:28.169Z,244
2018-07-22T05:11:28.748Z,248
2018-07-22T05:12:29.325Z,248
2018-07-22T05:13:29.902Z,252
2018-07-22T05:14:30.480Z,252
2018-07-22T05:15:31.060Z,260
2018-07-22T05:16:31.637Z,260
2018-07-22T05:17:32.212Z,264
2018-07-22T05:18:32.789Z,268
2018-07-22T05:19:33.367Z,272
2018-07-22T05:20:33.947Z,276
2018-07-22T05:21:34.525Z,280
2018-07-22T05:22:35.103Z,284
2018-07-22T05:23:35.682Z,288
2018-07-22T05:24:36.259Z,288
2018-07-22T05:25:36.836Z,296
2018-07-22T05:26:37.425Z,300
2018-07-22T05:27:38.002Z,300
2018-07-22T05:28:38.579Z,304
2018-07-22T05:29:39.158Z,304
2018-07-22T05:30:39.735Z,312
2018-07-22T05:31:40.313Z,312
2018-07-22T05:32:40.890Z,316
2018-07-22T05:33:41.479Z,316
2018-07-22T05:34:42.056Z,320
2018-07-22T05:35:42.645Z,320
2018-07-22T05:36:43.222Z,324
2018-07-22T05:37:43.801Z,328
2018-07-22T05:38:44.379Z,332
2018-07-22T05:39:44.956Z,332
2018-07-22T05:40:45.532Z,336
2018-07-22T05:41:46.109Z,336
2018-07-22T05:42:46.687Z,340
2018-07-22T05:43:47.266Z,344
2018-07-22T05:44:47.843Z,348
2018-07-22T05:45:48.420Z,352
2018-07-22T05:46:49.008Z,352
2018-07-22T05:47:49.585Z,352
2018-07-22T05:48:50.162Z,360
2018-07-22T05:49:50.742Z,360
2018-07-22T05:50:51.318Z,364
2018-07-22T05:51:51.896Z,364
2018-07-22T05:52:52.474Z,368
2018-07-22T05:53:53.066Z,372
2018-07-22T05:54:53.641Z,372
2018-07-22T05:55:54.220Z,376
2018-07-22T05:56:54.797Z,380
2018-07-22T05:57:55.375Z,384
2018-07-22T05:58:55.952Z,384
2018-07-22T05:59:56.531Z,384
2018-07-22T06:00:57.119Z,388
2018-07-22T06:01:57.697Z,392
2018-07-22T06:02:58.275Z,396
2018-07-22T06:03:58.853Z,396
2018-07-22T06:04:59.443Z,404
2018-07-22T06:06:00.020Z,408
2018-07-22T06:07:00.596Z,408
2018-07-22T06:08:01.179Z,412
2018-07-22T06:09:01.754Z,416
2018-07-22T06:10:02.332Z,420
2018-07-22T06:11:02.910Z,424
2018-07-22T06:12:03.525Z,424
2018-07-22T06:13:04.066Z,428
2018-07-22T06:14:04.644Z,428
2018-07-22T06:15:05.222Z,428
2018-07-22T06:16:05.798Z,432
2018-07-22T06:17:06.377Z,436
2018-07-22T06:18:06.955Z,444
2018-07-22T06:19:07.533Z,444
2018-07-22T06:20:08.110Z,444
2018-07-22T06:21:08.687Z,448
2018-07-22T06:22:09.265Z,448
2018-07-22T06:23:09.845Z,452
2018-07-22T06:24:10.423Z,456
2018-07-22T06:25:11.002Z,456
2018-07-22T06:26:11.580Z,460
2018-07-22T06:27:12.158Z,464
2018-07-22T06:28:12.735Z,468
2018-07-22T06:29:13.313Z,472
2018-07-22T06:30:13.890Z,476
2018-07-22T06:31:14.470Z,476
2018-07-22T06:32:15.047Z,476
2018-07-22T06:33:15.625Z,480
2018-07-22T06:34:16.205Z,480
2018-07-22T06:35:16.839Z,484
2018-07-22T06:36:17.362Z,488
2018-07-22T06:37:17.940Z,488
2018-07-22T06:38:18.528Z,488
2018-07-22T06:39:19.105Z,496
2018-07-22T06:40:19.682Z,496
2018-07-22T06:41:20.271Z,496
2018-07-22T06:42:20.849Z,500
2018-07-22T06:43:21.429Z,500
2018-07-22T06:44:22.017Z,508
2018-07-22T06:45:22.596Z,508
2018-07-22T06:46:23.176Z,508
2018-07-22T06:47:23.754Z,512
2018-07-22T06:48:24.332Z,512
2018-07-22T06:49:24.911Z,516
2018-07-22T06:50:25.489Z,516
2018-07-22T06:51:26.070Z,516
2018-07-22T06:52:26.645Z,524
2018-07-22T06:53:27.226Z,524
2018-07-22T06:54:27.886Z,524
2018-07-22T06:55:28.381Z,528
2018-07-22T06:56:28.959Z,528
2018-07-22T06:57:29.536Z,528
2018-07-22T06:58:30.116Z,528
2018-07-22T06:59:30.695Z,532
2018-07-22T07:00:31.284Z,536
2018-07-22T07:01:31.862Z,540
2018-07-22T07:02:32.452Z,540
2018-07-22T07:03:33.032Z,544
2018-07-22T07:04:33.610Z,544
2018-07-22T07:05:34.188Z,544
2018-07-22T07:06:34.767Z,552
2018-07-22T07:07:35.345Z,552
2018-07-22T07:08:35.967Z,552
2018-07-22T07:09:36.502Z,552
2018-07-22T07:10:37.081Z,556
2018-07-22T07:11:37.661Z,556
2018-07-22T07:12:38.252Z,556
2018-07-22T07:13:38.830Z,560
2018-07-22T07:14:39.419Z,560
2018-07-22T07:15:40.000Z,560
2018-07-22T07:16:40.592Z,560
2018-07-22T07:17:41.166Z,560
2018-07-22T07:18:41.748Z,564
2018-07-22T07:19:42.335Z,568
2018-07-22T07:20:42.966Z,568
2018-07-22T07:21:43.503Z,572
2018-07-22T07:22:44.080Z,572
2018-07-22T07:23:44.659Z,576
2018-07-22T07:24:45.238Z,580
2018-07-22T07:25:45.819Z,580
2018-07-22T07:26:46.404Z,580
2018-07-22T07:27:46.975Z,580
2018-07-22T07:28:47.553Z,580
2018-07-22T07:29:48.132Z,584
2018-07-22T07:30:48.722Z,588
2018-07-22T07:31:49.301Z,584
2018-07-22T07:32:49.879Z,584
2018-07-22T07:33:50.459Z,584
2018-07-22T07:34:51.038Z,584
2018-07-22T07:35:51.616Z,584
2018-07-22T07:36:52.197Z,584
2018-07-22T07:37:52.776Z,588
2018-07-22T07:38:53.366Z,592
2018-07-22T07:39:53.944Z,596
2018-07-22T07:40:54.523Z,592
2018-07-22T07:41:55.103Z,596
2018-07-22T07:42:55.683Z,604
2018-07-22T07:43:56.261Z,604
2018-07-22T07:44:56.854Z,608
2018-07-22T07:45:57.430Z,600
2018-07-22T07:46:58.009Z,612
2018-07-22T07:47:58.594Z,616
2018-07-22T07:48:59.177Z,616
2018-07-22T07:49:59.756Z,616
2018-07-22T07:51:00.335Z,620
2018-07-22T07:52:00.916Z,624
2018-07-22T07:53:01.496Z,624
2018-07-22T07:54:02.076Z,624
2018-07-22T07:55:02.666Z,624
2018-07-22T07:56:03.243Z,624
2018-07-22T07:57:03.822Z,624
2018-07-22T07:58:04.403Z,628
2018-07-22T07:59:04.981Z,624
2018-07-22T08:00:05.560Z,628
2018-07-22T08:01:06.138Z,632
2018-07-22T08:02:06.719Z,632
2018-07-22T08:03:07.305Z,636
2018-07-22T08:04:07.886Z,640
2018-07-22T08:05:08.466Z,596
2018-07-22T08:06:09.056Z,644
2018-07-22T08:07:09.637Z,648
2018-07-22T08:08:10.229Z,652
2018-07-22T08:09:10.809Z,652
2018-07-22T08:10:11.387Z,652
2018-07-22T08:11:11.964Z,652
2018-07-22T08:12:12.544Z,656
2018-07-22T08:13:13.124Z,660
2018-07-22T08:14:13.705Z,656
2018-07-22T08:15:14.284Z,656
2018-07-22T08:16:14.863Z,652
2018-07-22T08:17:15.455Z,616
2018-07-22T08:18:16.032Z,544
2018-07-22T08:19:16.692Z,572
2018-07-22T08:20:17.192Z,560
2018-07-22T08:21:17.772Z,612
2018-07-22T08:22:18.391Z,664
2018-07-22T08:23:18.942Z,672
2018-07-22T08:24:19.523Z,668
2018-07-22T08:25:20.101Z,644
2018-07-22T08:26:20.681Z,624
2018-07-22T08:27:21.262Z,628
2018-07-22T08:28:21.841Z,624
2018-07-22T08:29:22.420Z,656
2018-07-22T08:30:23.004Z,664
2018-07-22T08:31:23.581Z,656
2018-07-22T08:32:24.161Z,676
2018-07-22T08:33:24.752Z,676
2018-07-22T08:34:25.331Z,676
2018-07-22T08:35:25.922Z,676
2018-07-22T08:36:26.502Z,680
2018-07-22T08:37:27.081Z,688
2018-07-22T08:38:27.662Z,680
2018-07-22T08:39:28.244Z,684
2018-07-22T08:40:28.822Z,680
2018-07-22T08:41:29.469Z,688
2018-07-22T08:42:29.993Z,684
2018-07-22T08:43:30.572Z,688
2018-07-22T08:44:31.152Z,692
2018-07-22T08:45:31.735Z,688
2018-07-22T08:46:32.313Z,696
2018-07-22T08:47:32.912Z,704
2018-07-22T08:48:33.473Z,696
2018-07-22T08:49:34.054Z,704
2018-07-22T08:50:34.636Z,704
2018-07-22T08:51:35.215Z,708
2018-07-22T08:52:35.794Z,704
2018-07-22T08:53:36.375Z,708
2018-07-22T08:54:36.956Z,708
2018-07-22T08:55:37.538Z,704
2018-07-22T08:56:38.127Z,704
2018-07-22T08:57:38.707Z,708
2018-07-22T08:58:39.297Z,704
2018-07-22T08:59:39.879Z,700
2018-07-22T09:00:40.457Z,696
2018-07-22T09:01:41.038Z,704
2018-07-22T09:02:41.620Z,716
2018-07-22T09:03:42.200Z,716
2018-07-22T09:04:42.779Z,716
2018-07-22T09:05:43.365Z,720
2018-07-22T09:06:43.940Z,712
2018-07-22T09:07:44.523Z,720
2018-07-22T09:09:28.356Z,716
2018-07-22T09:10:28.938Z,712
2018-07-22T09:11:29.518Z,716
2018-07-22T09:12:30.099Z,716
2018-07-22T09:13:30.690Z,728
2018-07-22T09:14:31.270Z,732
2018-07-22T09:15:31.861Z,728
2018-07-22T09:16:32.457Z,720
2018-07-22T09:17:33.021Z,720
2018-07-22T09:18:33.613Z,720
2018-07-22T09:19:34.205Z,740
2018-07-22T09:20:34.785Z,744
2018-07-22T09:21:35.365Z,752
2018-07-22T09:22:35.945Z,748
2018-07-22T09:23:36.527Z,740
2018-07-22T09:24:37.106Z,740
2018-07-22T09:25:37.686Z,732
2018-07-22T09:26:38.264Z,740
2018-07-22T09:27:38.845Z,744
2018-07-22T09:28:39.436Z,748
2018-07-22T09:29:40.022Z,760
2018-07-22T09:30:40.609Z,760
2018-07-22T09:31:41.190Z,768
2018-07-22T09:32:41.772Z,772
2018-07-22T09:33:42.351Z,780
2018-07-22T09:34:42.933Z,784
2018-07-22T09:35:43.593Z,792
2018-07-22T09:36:44.098Z,808
2018-07-22T09:37:44.679Z,816
2018-07-22T09:38:45.270Z,840
2018-07-22T09:39:45.850Z,856
2018-07-22T09:40:46.430Z,876
2018-07-22T09:41:47.022Z,908
2018-07-22T09:42:47.592Z,940
2018-07-22T09:43:48.176Z,944
2018-07-22T09:44:49.703Z,932
2018-07-22T09:45:50.283Z,884
2018-07-22T09:46:50.863Z,796
2018-07-22T09:47:51.443Z,876
2018-07-22T09:48:52.029Z,752
2018-07-22T09:49:52.607Z,880
2018-07-22T09:50:53.187Z,912
2018-07-22T09:51:53.768Z,936
2018-07-22T09:52:54.350Z,748
2018-07-22T09:53:54.930Z,656
2018-07-22T09:54:55.522Z,620
2018-07-22T09:55:56.091Z,908
2018-07-22T09:56:56.676Z,740
2018-07-22T09:57:57.263Z,728
2018-07-22T09:58:57.846Z,876
2018-07-22T09:59:58.427Z,820
2018-07-22T10:00:59.008Z,808
2018-07-22T10:01:59.589Z,756
2018-07-22T10:03:00.173Z,888
2018-07-22T10:04:00.752Z,748
2018-07-22T10:05:01.336Z,860
2018-07-22T10:06:01.912Z,868
2018-07-22T10:07:02.504Z,880
2018-07-22T10:08:03.085Z,876
2018-07-22T10:09:03.666Z,860
2018-07-22T10:10:04.248Z,748
2018-07-22T10:11:04.833Z,824
2018-07-22T10:12:05.420Z,832
2018-07-22T10:13:06.003Z,644
2018-07-22T10:14:06.582Z,628
2018-07-22T10:15:07.164Z,688
2018-07-22T10:16:07.744Z,816
2018-07-22T10:17:08.326Z,812
2018-07-22T10:18:08.908Z,844
2018-07-22T10:19:09.488Z,856
2018-07-22T10:20:10.070Z,804
2018-07-22T10:21:10.652Z,860
2018-07-22T10:22:11.233Z,864
2018-07-22T10:23:11.814Z,836
2018-07-22T10:24:12.394Z,860
2018-07-22T10:25:12.976Z,844
2018-07-22T10:26:13.557Z,848
2018-07-22T10:27:14.138Z,856
2018-07-22T10:28:14.719Z,832
2018-07-22T10:29:15.299Z,816
2018-07-22T10:30:15.881Z,816
2018-07-22T10:31:16.463Z,824
2018-07-22T10:32:17.045Z,820
2018-07-22T10:33:17.624Z,808
2018-07-22T10:34:18.207Z,820
2018-07-22T10:35:18.798Z,856
2018-07-22T10:36:19.381Z,880
2018-07-22T10:37:19.964Z,888
2018-07-22T10:38:20.545Z,912
2018-07-22T10:39:21.126Z,916
2018-07-22T10:40:21.709Z,920
2018-07-22T10:41:22.289Z,900
2018-07-22T10:42:22.885Z,892
2018-07-22T10:43:23.500Z,884
2018-07-22T10:44:24.050Z,908
2018-07-22T10:45:24.632Z,920
2018-07-22T10:46:25.219Z,924
2018-07-22T10:47:25.796Z,636
2018-07-22T10:48:26.378Z,924
2018-07-22T10:49:26.964Z,916
2018-07-22T10:50:27.551Z,916
2018-07-22T10:51:28.134Z,652
2018-07-22T10:52:28.717Z,636
2018-07-22T10:53:29.319Z,644
2018-07-22T10:54:29.879Z,944
2018-07-22T10:55:30.461Z,964
2018-07-22T10:56:31.062Z,996
2018-07-22T10:57:31.646Z,1000
2018-07-22T10:58:32.228Z,1020
2018-07-22T10:59:32.813Z,1020
2018-07-22T11:00:33.404Z,1004
2018-07-22T11:01:33.988Z,784
2018-07-22T11:02:34.570Z,736
2018-07-22T11:03:35.154Z,808
2018-07-22T11:04:35.732Z,1024
2018-07-22T11:05:36.318Z,1004
2018-07-22T11:06:36.896Z,980
2018-07-22T11:07:37.477Z,968
2018-07-22T11:08:38.058Z,796
2018-07-22T11:09:38.640Z,912
2018-07-22T11:10:39.224Z,1028
2018-07-22T11:11:39.806Z,1032
2018-07-22T11:12:40.388Z,1044
2018-07-22T11:13:40.972Z,1056
2018-07-22T11:14:41.629Z,1048
2018-07-22T11:15:42.136Z,1056
2018-07-22T11:16:42.720Z,1036
2018-07-22T11:17:43.303Z,1016
2018-07-22T11:18:43.885Z,976
2018-07-22T11:19:44.465Z,964
2018-07-22T11:20:45.047Z,972
2018-07-22T11:21:45.630Z,932
2018-07-22T11:22:46.210Z,816
2018-07-22T11:23:46.793Z,820
2018-07-22T11:24:47.375Z,952
2018-07-22T11:25:47.958Z,988
2018-07-22T11:26:48.540Z,996
2018-07-22T11:27:49.133Z,1000
2018-07-22T11:28:49.797Z,960
2018-07-22T11:29:50.305Z,688
2018-07-22T11:30:50.887Z,688
2018-07-22T11:31:51.471Z,712
2018-07-22T11:32:52.047Z,752
2018-07-22T11:33:52.629Z,792
2018-07-22T11:34:53.211Z,836
2018-07-22T11:35:53.846Z,1208
2018-07-22T11:36:54.388Z,1224
2018-07-22T11:37:54.971Z,1252
2018-07-22T11:38:55.552Z,1272
2018-07-22T11:39:56.137Z,1252
2018-07-22T11:40:56.719Z,1232
2018-07-22T11:41:57.309Z,1180
2018-07-22T11:42:57.894Z,1076
2018-07-22T11:43:58.549Z,1044
2018-07-22T11:44:59.059Z,1056
2018-07-22T11:45:59.644Z,1004
2018-07-22T11:47:00.225Z,964
2018-07-22T11:48:00.819Z,756
2018-07-22T11:49:01.402Z,776
2018-07-22T11:50:01.981Z,824
2018-07-22T11:51:02.563Z,1048
2018-07-22T11:52:03.160Z,1244
2018-07-22T11:53:03.750Z,1224
2018-07-22T11:54:04.333Z,1192
2018-07-22T11:55:04.916Z,1208
2018-07-22T11:56:05.500Z,1172
2018-07-22T11:57:06.082Z,1204
2018-07-22T11:58:06.666Z,1152
2018-07-22T11:59:07.251Z,1168
2018-07-22T12:00:07.846Z,1036
2018-07-22T12:01:08.415Z,1152
2018-07-22T12:02:09.000Z,1072
2018-07-22T12:03:09.594Z,1112
2018-07-22T12:04:10.177Z,1060
2018-07-22T12:05:10.760Z,1192
2018-07-22T12:06:11.340Z,1256
2018-07-22T12:07:11.924Z,1180
2018-07-22T12:08:12.508Z,1228
2018-07-22T12:09:13.091Z,1200
2018-07-22T12:10:13.676Z,1192
2018-07-22T12:11:14.260Z,1236
2018-07-22T12:12:14.869Z,1184
2018-07-22T12:13:15.425Z,1068
2018-07-22T12:14:16.009Z,964
2018-07-22T12:15:16.591Z,1048
2018-07-22T12:16:17.174Z,1164
2018-07-22T12:17:17.760Z,1212
2018-07-22T12:18:18.339Z,1260
2018-07-22T12:19:18.921Z,1288
2018-07-22T12:20:19.515Z,908
2018-07-22T12:21:20.130Z,1228
2018-07-22T12:22:20.702Z,868
2018-07-22T12:23:21.284Z,868
2018-07-22T12:24:21.866Z,884
2018-07-22T12:25:22.459Z,1292
2018-07-22T12:26:23.044Z,1292
2018-07-22T12:27:23.624Z,1292
2018-07-22T12:28:24.207Z,1280
2018-07-22T12:29:24.790Z,1216
2018-07-22T12:30:25.374Z,1276
2018-07-22T12:31:25.956Z,1108
2018-07-22T12:32:26.539Z,1256
2018-07-22T12:33:27.133Z,1300
2018-07-22T12:34:27.807Z,1276
2018-07-22T12:35:28.322Z,972
2018-07-22T12:36:28.882Z,1316
2018-07-22T12:37:29.475Z,1308
2018-07-22T12:38:30.057Z,1320
2018-07-22T12:39:30.641Z,1316
2018-07-22T12:40:31.225Z,1316
2018-07-22T12:41:31.808Z,1324
2018-07-22T12:42:32.390Z,1312
2018-07-22T12:43:32.974Z,1280
2018-07-22T12:44:33.558Z,1280
2018-07-22T12:45:34.137Z,1176
2018-07-22T12:46:34.787Z,1268
2018-07-22T12:47:35.304Z,1292
2018-07-22T12:48:35.888Z,1312
2018-07-22T12:49:36.470Z,1324
2018-07-22T12:50:37.054Z,1244
2018-07-22T12:51:37.640Z,1112
2018-07-22T12:52:38.237Z,1256
2018-07-22T12:53:38.836Z,1292
2018-07-22T12:54:39.414Z,1216
2018-07-22T12:55:39.993Z,1020
2018-07-22T12:56:40.576Z,1252
2018-07-22T12:57:41.160Z,1324
2018-07-22T12:58:41.745Z,948
2018-07-22T12:59:42.328Z,1320
2018-07-22T13:00:42.910Z,1312
2018-07-22T13:01:43.494Z,1296
2018-07-22T13:02:44.077Z,1284
2018-07-22T13:03:44.672Z,848
2018-07-22T13:04:45.253Z,1212
2018-07-22T13:05:45.846Z,900
2018-07-22T13:06:46.442Z,760
2018-07-22T13:07:47.009Z,772
2018-07-22T13:08:47.591Z,912
2018-07-22T13:09:48.185Z,1260
2018-07-22T13:10:48.769Z,1252
2018-07-22T13:11:49.355Z,880
2018-07-22T13:12:49.935Z,1052
2018-07-22T13:13:50.516Z,1208
2018-07-22T13:14:51.101Z,1248
2018-07-22T13:15:51.682Z,768
2018-07-22T13:16:52.278Z,1164
2018-07-22T13:17:52.847Z,1256
2018-07-22T13:18:53.482Z,1260
2018-07-22T13:19:54.016Z,1240
2018-07-22T13:20:54.597Z,760
2018-07-22T13:21:55.181Z,696
2018-07-22T13:22:55.762Z,656
2018-07-22T13:23:56.343Z,644
2018-07-22T13:24:56.926Z,656
2018-07-22T13:25:57.508Z,672
2018-07-22T13:26:58.090Z,704
2018-07-22T13:27:58.674Z,744
2018-07-22T13:28:59.256Z,808
2018-07-22T13:29:59.838Z,900
2018-07-22T13:31:00.418Z,896
2018-07-22T13:32:01.002Z,924
2018-07-22T13:33:01.586Z,956
2018-07-22T13:34:02.167Z,968
2018-07-22T13:35:02.755Z,808
2018-07-22T13:36:03.333Z,800
2018-07-22T13:37:03.926Z,832
2018-07-22T13:38:04.535Z,1088
2018-07-22T13:39:05.104Z,940
2018-07-22T13:40:05.688Z,752
2018-07-22T13:41:06.270Z,728
2018-07-22T13:42:06.852Z,740
2018-07-22T13:43:07.436Z,908
2018-07-22T13:44:08.019Z,1196
2018-07-22T13:45:08.640Z,1180
2018-07-22T13:46:09.205Z,1128
2018-07-22T13:47:09.770Z,640
2018-07-22T13:48:10.355Z,620
2018-07-22T13:49:10.935Z,624
2018-07-22T13:50:11.517Z,636
2018-07-22T13:51:12.100Z,652
2018-07-22T13:52:12.681Z,672
2018-07-22T13:53:13.262Z,684
2018-07-22T13:54:13.843Z,692
2018-07-22T13:55:14.426Z,708
2018-07-22T13:56:15.013Z,728
2018-07-22T13:57:15.591Z,760
2018-07-22T13:58:16.174Z,784
2018-07-22T13:59:16.757Z,1040
2018-07-22T14:00:17.346Z,808
2018-07-22T14:01:17.921Z,1104
2018-07-22T14:02:18.523Z,824
2018-07-22T14:03:19.095Z,796
2018-07-22T14:04:19.677Z,776
2018-07-22T14:05:20.261Z,760
2018-07-22T14:06:20.842Z,740
2018-07-22T14:07:21.494Z,716